Tyngsboro, Massachusetts
Current Conditions -  °F | °C
As of 12:51 PM on Thursday 27 Nov 2014 (Local Time) from KASH Reporting Station
Overcast Overcast  
Wind Chill: 28°   Ceiling: 4000
Heat Index: 35°   Visibility: 10mi
Dew Point: 30°   Wind: 8mph
Humidity: 82%   Direction: 330°NNW
Pressure: 29.94"   Gusts: NA
Location:  42.68°N, 71.42°W
Report Text: KASH 271751Z 33007KT 10SM SCT015 OVC040 02/M01 A2994 RMK AO2 58002 T00161011 10016 21011 SLP396 $
Loading
Personal Weather Stations






























Interactive Weather Map New forecast layout! Learn more

10-Day Weather Forecast

Advertisements
Track Severe Weather on mobile